Chaparral, New Mexico
Current Conditions -  °F | °C
As of 7:58 AM on Sunday 23 Nov 2014 (Local Time) from KBIF Reporting Station
Clear Clear  
Wind Chill: 55°   Ceiling: Unl
Heat Index: 55°   Visibility: 9mi
Dew Point: 22°   Wind: 23mph
Humidity: 28%   Direction: 280°W
Pressure: 29.89"   Gusts: 38mph
Location:  32.03°N, 106.4°W
Report Text: KBIF 231458Z AUTO 28020G33KT 9SM CLR 13/M05 A2989 RMK AO2 PK WND 27040/55 SLP084 T01261055 50010 $
Loading
Personal Weather Stations






























Interactive Weather Map New forecast layout! Learn more

10-Day Weather Forecast

Advertisements
Track Severe Weather on mobile